createdAt,value
2022-09-14T00:01:25.852Z,54.04
2022-09-14T00:03:59.305Z,54.64
2022-09-14T00:06:27.059Z,53.56
2022-09-14T00:08:55.976Z,53.52
2022-09-14T00:11:24.561Z,53.65
2022-09-14T00:13:51.523Z,53.87
2022-09-14T00:16:21.337Z,54.14
2022-09-14T00:18:52.869Z,54.79
2022-09-14T00:21:20.168Z,55.30
2022-09-14T00:23:46.744Z,54.99
2022-09-14T00:26:16.793Z,54.02
2022-09-14T00:28:45.783Z,54.00
2022-09-14T00:31:13.185Z,55.62
2022-09-14T00:33:42.303Z,56.20
2022-09-14T00:36:21.574Z,56.01
2022-09-14T00:38:49.208Z,56.98
2022-09-14T00:41:19.084Z,55.59
2022-09-14T00:44:01.722Z,55.83
2022-09-14T00:46:36.076Z,55.75
2022-09-14T00:49:06.106Z,56.30
2022-09-14T00:51:34.372Z,57.12
2022-09-14T00:54:03.219Z,57.63
2022-09-14T00:56:30.327Z,57.46
2022-09-14T00:58:59.878Z,57.41
2022-09-14T01:01:26.893Z,57.71
2022-09-14T01:03:53.526Z,57.78
2022-09-14T01:06:40.783Z,56.89
2022-09-14T01:09:32.111Z,56.84
2022-09-14T01:12:24.104Z,56.93
2022-09-14T01:15:03.337Z,58.38
2022-09-14T01:17:43.419Z,57.52
2022-09-14T01:20:30.169Z,55.93
2022-09-14T01:23:26.992Z,56.32
2022-09-14T01:26:31.374Z,56.00
2022-09-14T01:29:16.965Z,55.70
2022-09-14T01:31:55.207Z,56.37
2022-09-14T01:34:33.926Z,56.45
2022-09-14T01:37:12.779Z,56.81
2022-09-14T01:39:45.689Z,56.80
2022-09-14T01:42:13.090Z,56.60
2022-09-14T01:44:44.732Z,56.43
2022-09-14T01:47:31.157Z,55.84
2022-09-14T01:50:05.920Z,56.20
2022-09-14T01:52:42.724Z,55.90
2022-09-14T01:55:18.276Z,56.27
2022-09-14T01:57:56.649Z,55.97
2022-09-14T02:00:23.242Z,55.94
2022-09-14T02:02:55.009Z,56.53
2022-09-14T02:05:31.511Z,56.69
2022-09-14T02:07:58.143Z,56.25
2022-09-14T02:10:25.834Z,55.56
2022-09-14T02:12:53.985Z,56.20
2022-09-14T02:15:21.195Z,55.73
2022-09-14T02:17:48.581Z,56.04
2022-09-14T02:20:31.177Z,55.70
2022-09-14T02:22:57.728Z,55.55
2022-09-14T02:25:24.333Z,55.13
2022-09-14T02:27:53.572Z,54.50
2022-09-14T02:30:20.737Z,54.04
2022-09-14T02:33:08.366Z,54.23
2022-09-14T02:35:46.961Z,55.03
2022-09-14T02:38:29.763Z,55.71
2022-09-14T02:41:31.453Z,55.80
2022-09-14T02:44:17.715Z,55.87
2022-09-14T02:46:44.501Z,55.53
2022-09-14T02:49:14.003Z,54.77
2022-09-14T02:51:52.668Z,54.63
2022-09-14T02:54:34.942Z,54.56
2022-09-14T02:57:03.168Z,55.08
2022-09-14T02:59:30.358Z,55.39
2022-09-14T03:02:00.543Z,57.09
2022-09-14T03:04:27.439Z,57.81
2022-09-14T03:06:54.189Z,58.00
2022-09-14T03:09:20.775Z,56.00
2022-09-14T03:11:47.315Z,56.77
2022-09-14T03:14:13.899Z,55.98
2022-09-14T03:16:40.536Z,57.44
2022-09-14T03:19:07.240Z,59.34
2022-09-14T03:21:33.784Z,57.03
2022-09-14T03:24:02.844Z,58.58
2022-09-14T03:26:29.864Z,58.77
2022-09-14T03:28:58.750Z,56.94
2022-09-14T03:31:26.495Z,58.96
2022-09-14T03:33:56.465Z,59.67
2022-09-14T03:36:24.197Z,57.75
2022-09-14T03:38:52.945Z,56.30
2022-09-14T03:41:20.874Z,56.59
2022-09-14T03:43:48.029Z,57.61
2022-09-14T03:46:17.089Z,58.42
2022-09-14T03:48:44.516Z,57.76
2022-09-14T03:51:14.984Z,58.33
2022-09-14T03:53:42.633Z,57.17
2022-09-14T03:56:17.895Z,59.18
2022-09-14T03:58:45.563Z,59.44
2022-09-14T04:01:15.974Z,59.44
2022-09-14T04:03:42.990Z,60.89
2022-09-14T04:06:10.043Z,59.39
2022-09-14T04:08:38.629Z,61.00
2022-09-14T04:11:15.921Z,59.86
2022-09-14T04:13:44.333Z,60.37
2022-09-14T04:16:11.700Z,58.61
2022-09-14T04:18:40.344Z,59.50
2022-09-14T04:21:10.294Z,59.90
2022-09-14T04:23:56.556Z,58.53
2022-09-14T04:26:28.429Z,58.71
2022-09-14T04:28:56.907Z,58.58
2022-09-14T04:31:24.486Z,58.08
2022-09-14T04:33:51.393Z,58.58
2022-09-14T04:36:20.292Z,59.25
2022-09-14T04:38:47.007Z,61.60
2022-09-14T04:41:16.389Z,60.15
2022-09-14T04:43:45.173Z,62.32
2022-09-14T04:46:14.770Z,60.59
2022-09-14T04:48:42.061Z,63.20
2022-09-14T04:51:13.892Z,64.25
2022-09-14T04:53:41.043Z,65.33
2022-09-14T04:56:09.797Z,67.14
2022-09-14T04:58:39.954Z,67.85
2022-09-14T05:01:09.702Z,69.05
2022-09-14T05:03:38.859Z,68.63
2022-09-14T05:06:10.958Z,68.01
2022-09-14T05:08:38.681Z,67.98
2022-09-14T05:11:06.902Z,68.66
2022-09-14T05:13:34.387Z,68.58
2022-09-14T05:16:15.599Z,69.21
2022-09-14T05:18:42.449Z,68.47
2022-09-14T05:21:10.603Z,69.25
2022-09-14T05:23:37.625Z,68.81
2022-09-14T05:26:05.440Z,69.03
2022-09-14T05:28:33.012Z,68.61
2022-09-14T05:30:59.969Z,68.67
2022-09-14T05:33:26.607Z,68.60
2022-09-14T05:35:59.507Z,69.38
2022-09-14T05:38:28.706Z,69.36
2022-09-14T05:40:55.531Z,69.85
2022-09-14T05:43:22.654Z,69.93
2022-09-14T05:45:49.662Z,70.46
2022-09-14T05:48:16.236Z,69.78
2022-09-14T05:50:42.820Z,70.36
2022-09-14T05:53:09.630Z,70.41
2022-09-14T05:55:36.204Z,69.90
2022-09-14T05:58:04.457Z,69.86
2022-09-14T06:00:31.737Z,69.84
2022-09-14T06:02:58.381Z,69.58
2022-09-14T06:05:28.228Z,69.01
2022-09-14T06:07:57.873Z,69.37
2022-09-14T06:10:24.428Z,69.24
2022-09-14T06:12:55.586Z,70.13
2022-09-14T06:15:24.603Z,69.27
2022-09-14T06:17:51.557Z,69.62
2022-09-14T06:20:18.889Z,69.44
2022-09-14T06:22:45.422Z,69.04
2022-09-14T06:25:12.224Z,68.81
2022-09-14T06:27:38.840Z,69.26
2022-09-14T06:30:05.995Z,69.00
2022-09-14T06:32:32.728Z,68.89
2022-09-14T06:34:59.546Z,69.37
2022-09-14T06:37:26.137Z,69.30
2022-09-14T06:39:52.893Z,68.38
2022-09-14T06:42:19.501Z,68.32
2022-09-14T06:44:51.505Z,68.17
2022-09-14T06:47:18.041Z,68.29
2022-09-14T06:49:44.622Z,68.43
2022-09-14T06:52:11.248Z,67.74
2022-09-14T06:54:37.889Z,67.39
2022-09-14T06:57:05.852Z,67.43
2022-09-14T06:59:32.464Z,67.89
2022-09-14T07:01:59.827Z,67.89
2022-09-14T07:04:26.548Z,68.18
2022-09-14T07:06:53.129Z,67.79
2022-09-14T07:09:20.176Z,67.16
2022-09-14T07:11:47.576Z,67.76
2022-09-14T07:14:14.252Z,67.87
2022-09-14T07:16:41.315Z,68.33
2022-09-14T07:19:11.949Z,68.52
2022-09-14T07:21:39.165Z,68.43
2022-09-14T07:24:06.170Z,68.75
2022-09-14T07:26:39.551Z,68.97
2022-09-14T07:29:07.828Z,68.72
2022-09-14T07:31:41.082Z,68.70
2022-09-14T07:34:08.128Z,68.29
2022-09-14T07:36:36.271Z,68.88
2022-09-14T07:39:06.352Z,68.74
2022-09-14T07:41:34.227Z,68.04
2022-09-14T07:44:02.970Z,68.33
2022-09-14T07:46:33.289Z,68.34
2022-09-14T07:49:02.179Z,67.93
2022-09-14T07:51:30.355Z,67.81
2022-09-14T07:53:57.362Z,67.55
2022-09-14T07:56:25.613Z,67.29
2022-09-14T07:59:11.526Z,67.28
2022-09-14T08:01:46.371Z,67.47
2022-09-14T08:04:12.955Z,67.20
2022-09-14T08:06:40.621Z,66.72
2022-09-14T08:09:11.079Z,66.19
2022-09-14T08:11:38.531Z,66.59
2022-09-14T08:14:09.792Z,66.24
2022-09-14T08:16:38.645Z,66.20
2022-09-14T08:19:08.127Z,65.92
2022-09-14T08:21:35.729Z,66.09
2022-09-14T08:24:04.209Z,65.24
2022-09-14T08:26:31.568Z,65.46
2022-09-14T08:29:00.423Z,65.58
2022-09-14T08:31:28.136Z,64.63
2022-09-14T08:34:03.560Z,64.53
2022-09-14T08:36:34.368Z,64.33
2022-09-14T08:39:01.740Z,64.36
2022-09-14T08:41:43.362Z,64.39
2022-09-14T08:44:29.253Z,64.30
2022-09-14T08:47:01.050Z,63.89
2022-09-14T08:49:47.852Z,63.90
2022-09-14T08:52:22.959Z,63.33
2022-09-14T08:54:53.662Z,63.18
2022-09-14T08:57:25.287Z,62.64
2022-09-14T09:00:08.774Z,62.54
2022-09-14T09:02:44.412Z,62.06
2022-09-14T09:05:23.152Z,61.80
2022-09-14T09:08:10.233Z,61.64
2022-09-14T09:10:40.091Z,61.33
2022-09-14T09:13:10.687Z,61.30
2022-09-14T09:15:47.272Z,61.20
2022-09-14T09:18:20.153Z,61.00
2022-09-14T09:20:52.181Z,60.36
2022-09-14T09:23:23.944Z,60.64
2022-09-14T09:25:52.368Z,59.97
2022-09-14T09:28:20.207Z,60.27
2022-09-14T09:30:47.116Z,59.40
2022-09-14T09:33:25.387Z,59.34
2022-09-14T09:36:08.279Z,59.19
2022-09-14T09:38:35.116Z,57.85
2022-09-14T09:41:13.074Z,56.75
2022-09-14T09:44:02.922Z,57.17
2022-09-14T09:46:34.955Z,57.02
2022-09-14T09:49:05.006Z,56.35
2022-09-14T09:51:34.655Z,54.97
2022-09-14T09:54:13.374Z,54.45
2022-09-14T09:56:58.592Z,53.96
2022-09-14T09:59:29.888Z,53.74
2022-09-14T10:02:13.998Z,53.62
2022-09-14T10:05:07.327Z,53.11
2022-09-14T10:07:37.758Z,51.96
2022-09-14T10:10:13.620Z,51.18
2022-09-14T10:12:47.240Z,51.73
2022-09-14T10:15:33.101Z,51.09
2022-09-14T10:18:11.521Z,50.21
2022-09-14T10:20:43.276Z,49.51
2022-09-14T10:23:18.870Z,50.19
2022-09-14T10:25:50.634Z,50.13
2022-09-14T10:28:29.162Z,50.51
2022-09-14T10:31:20.149Z,50.54
2022-09-14T10:33:47.494Z,50.56
2022-09-14T10:36:31.691Z,50.05
2022-09-14T10:39:08.338Z,50.37
2022-09-14T10:41:53.641Z,49.73
2022-09-14T10:44:50.684Z,49.36
2022-09-14T10:47:23.184Z,49.66
2022-09-14T10:50:07.294Z,49.76
2022-09-14T10:53:01.760Z,50.11
2022-09-14T10:55:44.452Z,50.10
2022-09-14T10:58:56.885Z,50.29
2022-09-14T11:02:04.748Z,50.18
2022-09-14T11:05:04.956Z,50.11
2022-09-14T11:07:52.872Z,50.46
2022-09-14T11:10:37.554Z,50.45
2022-09-14T11:13:24.622Z,50.24
2022-09-14T11:16:21.285Z,50.29
2022-09-14T11:19:03.827Z,51.06
2022-09-14T11:21:50.778Z,50.92
2022-09-14T11:24:48.477Z,53.89
2022-09-14T11:27:22.707Z,56.01
2022-09-14T11:29:58.026Z,56.16
2022-09-14T11:32:53.599Z,56.74
2022-09-14T11:35:34.592Z,56.75
2022-09-14T11:38:08.382Z,58.36
2022-09-14T11:40:46.661Z,58.76
2022-09-14T11:43:15.747Z,60.43
2022-09-14T11:45:48.838Z,60.88
2022-09-14T11:48:42.786Z,60.92
2022-09-14T11:51:15.337Z,61.18
2022-09-14T11:53:43.532Z,61.54
2022-09-14T11:56:26.213Z,60.99
2022-09-14T11:58:59.613Z,61.98
2022-09-14T12:01:40.090Z,62.73
2022-09-14T12:04:16.185Z,63.25
2022-09-14T12:06:48.543Z,63.57
2022-09-14T12:09:19.104Z,64.70
2022-09-14T12:11:48.302Z,64.26
2022-09-14T12:14:24.108Z,65.72
2022-09-14T12:17:37.886Z,64.49
2022-09-14T12:20:25.734Z,64.55
2022-09-14T12:23:03.688Z,64.34
2022-09-14T12:25:31.340Z,64.38
2022-09-14T12:27:59.044Z,64.33
2022-09-14T12:30:41.327Z,64.88
2022-09-14T12:33:32.827Z,64.67
2022-09-14T12:36:06.803Z,64.97
2022-09-14T12:38:40.539Z,65.03
2022-09-14T12:41:27.976Z,64.46
2022-09-14T12:43:55.359Z,64.16
2022-09-14T12:46:21.921Z,64.11
2022-09-14T12:48:48.666Z,64.15
2022-09-14T12:51:33.231Z,63.74
2022-09-14T12:54:08.865Z,63.39
2022-09-14T12:56:53.526Z,62.77
2022-09-14T12:59:55.279Z,62.41
2022-09-14T13:02:50.657Z,61.83
2022-09-14T13:05:23.601Z,61.30
2022-09-14T13:07:51.182Z,61.56
2022-09-14T13:10:26.152Z,60.99
2022-09-14T13:12:52.781Z,61.02
2022-09-14T13:15:24.306Z,60.81
2022-09-14T13:18:07.211Z,61.33
2022-09-14T13:20:35.680Z,61.14
2022-09-14T13:23:02.538Z,61.63
2022-09-14T13:25:36.455Z,61.41
2022-09-14T13:28:13.491Z,61.54
2022-09-14T13:30:43.378Z,62.55
2022-09-14T13:33:17.431Z,62.10
2022-09-14T13:35:50.212Z,62.36
2022-09-14T13:38:19.592Z,61.99
2022-09-14T13:40:49.293Z,61.83
2022-09-14T13:43:17.853Z,62.50
2022-09-14T13:45:45.275Z,61.92
2022-09-14T13:48:15.142Z,61.43
2022-09-14T13:50:49.829Z,61.02
2022-09-14T13:53:48.807Z,60.85
2022-09-14T13:56:33.891Z,60.40
2022-09-14T13:59:10.494Z,60.09
2022-09-14T14:01:40.051Z,60.03
2022-09-14T14:04:25.571Z,60.62
2022-09-14T14:07:21.516Z,62.04
2022-09-14T14:09:55.898Z,61.75
2022-09-14T14:12:39.400Z,61.32
2022-09-14T14:15:12.218Z,61.21
2022-09-14T14:17:42.904Z,60.88
2022-09-14T14:20:24.564Z,61.50
2022-09-14T14:23:13.020Z,62.69
2022-09-14T14:25:45.748Z,64.41
2022-09-14T14:28:25.281Z,65.18
2022-09-14T14:30:53.290Z,65.59
2022-09-14T14:33:20.321Z,66.52
2022-09-14T14:35:48.694Z,66.59
2022-09-14T14:38:16.252Z,66.89
2022-09-14T14:40:43.754Z,67.38
2022-09-14T14:43:18.718Z,66.92
2022-09-14T14:45:45.684Z,67.52
2022-09-14T14:48:12.702Z,68.07
2022-09-14T14:50:39.789Z,68.61
2022-09-14T14:53:06.890Z,68.86
2022-09-14T14:55:33.684Z,69.13
2022-09-14T14:58:02.872Z,68.29
2022-09-14T15:00:34.568Z,69.11
2022-09-14T15:03:01.294Z,68.49
2022-09-14T15:05:28.101Z,68.24
2022-09-14T15:07:55.998Z,68.51
2022-09-14T15:10:24.292Z,70.08
2022-09-14T15:12:51.791Z,70.25
2022-09-14T15:15:21.891Z,70.93
2022-09-14T15:17:48.506Z,70.86
2022-09-14T15:20:15.470Z,70.31
2022-09-14T15:22:42.758Z,70.48
2022-09-14T15:25:10.576Z,69.94
2022-09-14T15:27:37.463Z,69.62
2022-09-14T15:30:06.135Z,69.53
2022-09-14T15:32:32.829Z,69.45
2022-09-14T15:34:59.387Z,67.63
2022-09-14T15:37:26.015Z,67.27
2022-09-14T15:39:52.662Z,67.86
2022-09-14T15:42:19.857Z,67.74
2022-09-14T15:44:46.990Z,67.42
2022-09-14T15:47:14.789Z,67.36
2022-09-14T15:49:42.420Z,67.28
2022-09-14T15:52:10.394Z,67.31
2022-09-14T15:54:38.368Z,67.99
2022-09-14T15:57:08.036Z,68.02
2022-09-14T15:59:35.298Z,67.64
2022-09-14T16:02:02.679Z,67.33
2022-09-14T16:04:34.225Z,67.51
2022-09-14T16:07:00.782Z,67.20
2022-09-14T16:09:27.310Z,67.03
2022-09-14T16:11:56.268Z,66.68
2022-09-14T16:14:24.986Z,66.95
2022-09-14T16:16:51.632Z,66.68
2022-09-14T16:19:18.323Z,66.65
2022-09-14T16:21:44.890Z,67.44
2022-09-14T16:24:18.617Z,67.55
2022-09-14T16:26:45.870Z,67.67
2022-09-14T16:29:14.962Z,67.16
2022-09-14T16:31:43.350Z,67.23
2022-09-14T16:34:17.330Z,66.79
2022-09-14T16:36:44.480Z,67.30
2022-09-14T16:39:14.449Z,67.61
2022-09-14T16:41:42.197Z,66.99
2022-09-14T16:44:17.051Z,66.61
2022-09-14T16:46:44.365Z,66.66
2022-09-14T16:49:11.759Z,66.67
2022-09-14T16:51:38.503Z,66.02
2022-09-14T16:54:05.290Z,65.61
2022-09-14T16:56:37.112Z,65.11
2022-09-14T16:59:04.993Z,65.27
2022-09-14T17:01:37.845Z,64.86
2022-09-14T17:04:10.970Z,64.82
2022-09-14T17:06:39.805Z,65.60
2022-09-14T17:09:15.890Z,64.96
2022-09-14T17:11:43.175Z,64.38
2022-09-14T17:14:14.620Z,63.38
2022-09-14T17:16:41.156Z,63.32
2022-09-14T17:19:07.946Z,63.18
2022-09-14T17:21:37.010Z,62.90
2022-09-14T17:24:04.736Z,63.31
2022-09-14T17:26:34.592Z,63.40
2022-09-14T17:29:02.116Z,63.42
2022-09-14T17:31:31.394Z,63.84
2022-09-14T17:34:00.504Z,63.68
2022-09-14T17:36:28.096Z,63.84
2022-09-14T17:38:59.653Z,63.84
2022-09-14T17:41:30.432Z,64.46
2022-09-14T17:44:02.304Z,64.42
2022-09-14T17:46:29.646Z,64.83
2022-09-14T17:48:58.617Z,65.22
2022-09-14T17:51:27.816Z,64.98
2022-09-14T17:53:56.657Z,65.04
2022-09-14T17:56:25.072Z,64.93
2022-09-14T17:59:02.237Z,65.04
2022-09-14T18:01:29.826Z,64.79
2022-09-14T18:04:00.330Z,64.30
2022-09-14T18:06:30.273Z,64.59
2022-09-14T18:09:00.381Z,63.82
2022-09-14T18:11:28.726Z,64.18
2022-09-14T18:13:55.985Z,63.82
2022-09-14T18:16:24.174Z,64.52
2022-09-14T18:18:51.036Z,63.92
2022-09-14T18:21:18.607Z,64.38
2022-09-14T18:23:50.514Z,64.28
2022-09-14T18:26:17.967Z,63.96
2022-09-14T18:28:45.131Z,64.07
2022-09-14T18:31:14.442Z,63.39
2022-09-14T18:33:50.308Z,64.16
2022-09-14T18:36:17.926Z,64.62
2022-09-14T18:38:45.010Z,65.02
2022-09-14T18:41:12.761Z,64.75
2022-09-14T18:43:43.605Z,64.52
2022-09-14T18:46:10.440Z,65.32
2022-09-14T18:48:37.081Z,65.08
2022-09-14T18:51:05.099Z,64.70
2022-09-14T18:53:32.652Z,64.25
2022-09-14T18:56:12.636Z,64.30
2022-09-14T18:58:42.077Z,64.17
2022-09-14T19:01:09.929Z,64.14
2022-09-14T19:03:38.283Z,63.69
2022-09-14T19:06:11.496Z,63.13
2022-09-14T19:08:38.035Z,62.77
2022-09-14T19:11:05.772Z,62.29
2022-09-14T19:13:32.445Z,61.96
2022-09-14T19:15:59.039Z,61.95
2022-09-14T19:18:25.655Z,62.91
2022-09-14T19:21:07.315Z,63.06
2022-09-14T19:23:35.215Z,61.99
2022-09-14T19:26:07.011Z,61.32
2022-09-14T19:28:34.930Z,61.03
2022-09-14T19:31:09.189Z,61.28
2022-09-14T19:33:36.424Z,61.42
2022-09-14T19:36:08.208Z,61.83
2022-09-14T19:38:35.737Z,61.99
2022-09-14T19:41:02.329Z,61.85
2022-09-14T19:43:31.740Z,62.28
2022-09-14T19:46:10.247Z,62.63
2022-09-14T19:48:37.336Z,62.38
2022-09-14T19:51:12.692Z,62.31
2022-09-14T19:53:39.334Z,62.00
2022-09-14T19:56:08.342Z,61.94
2022-09-14T19:58:39.709Z,62.01
2022-09-14T20:01:06.940Z,61.85
2022-09-14T20:03:34.018Z,61.64
2022-09-14T20:06:02.522Z,61.95
2022-09-14T20:08:30.140Z,63.13
2022-09-14T20:10:56.672Z,62.55
2022-09-14T20:13:23.246Z,61.99
2022-09-14T20:15:49.957Z,61.41
2022-09-14T20:18:16.515Z,60.76
2022-09-14T20:20:43.090Z,60.68
2022-09-14T20:23:09.602Z,60.32
2022-09-14T20:25:36.253Z,60.23
2022-09-14T20:28:02.903Z,59.82
2022-09-14T20:30:29.451Z,60.94
2022-09-14T20:32:55.962Z,61.37
2022-09-14T20:35:22.540Z,61.73
2022-09-14T20:37:49.153Z,61.73
2022-09-14T20:40:15.852Z,61.93
2022-09-14T20:42:42.434Z,62.58
2022-09-14T20:45:09.415Z,61.92
2022-09-14T20:47:36.392Z,61.87
2022-09-14T20:50:03.148Z,62.07
2022-09-14T20:52:29.736Z,62.30
2022-09-14T20:54:56.280Z,62.44
2022-09-14T20:57:24.144Z,62.90
2022-09-14T20:59:50.705Z,63.08
2022-09-14T21:02:17.306Z,62.65
2022-09-14T21:04:44.107Z,62.66
2022-09-14T21:07:10.986Z,62.28
2022-09-14T21:09:37.500Z,62.10
2022-09-14T21:12:04.124Z,61.94
2022-09-14T21:14:30.721Z,61.26
2022-09-14T21:16:58.459Z,62.49
2022-09-14T21:19:27.540Z,62.11
2022-09-14T21:21:54.374Z,62.51
2022-09-14T21:24:22.800Z,61.66
2022-09-14T21:26:49.639Z,61.47
2022-09-14T21:29:23.364Z,61.52
2022-09-14T21:31:50.196Z,61.38
2022-09-14T21:34:17.278Z,61.87
2022-09-14T21:36:47.075Z,62.90
2022-09-14T21:39:21.494Z,62.87
2022-09-14T21:41:51.445Z,62.52
2022-09-14T21:44:21.165Z,62.87
2022-09-14T21:46:47.746Z,63.42
2022-09-14T21:49:16.961Z,63.71
2022-09-14T21:51:44.372Z,64.27
2022-09-14T21:54:13.027Z,63.96
2022-09-14T21:56:41.498Z,64.58
2022-09-14T21:59:14.052Z,64.18
2022-09-14T22:01:41.707Z,64.36
2022-09-14T22:04:12.429Z,65.44
2022-09-14T22:06:40.574Z,66.29
2022-09-14T22:09:07.523Z,67.30
2022-09-14T22:11:36.324Z,67.03
2022-09-14T22:14:04.490Z,67.29
2022-09-14T22:16:34.240Z,67.71
2022-09-14T22:19:04.003Z,67.36
2022-09-14T22:21:32.921Z,66.90
2022-09-14T22:24:01.833Z,67.18
2022-09-14T22:26:31.418Z,66.71
2022-09-14T22:28:58.915Z,66.09
2022-09-14T22:31:26.857Z,65.19
2022-09-14T22:33:55.362Z,65.62
2022-09-14T22:36:22.776Z,65.68
2022-09-14T22:38:49.573Z,65.34
2022-09-14T22:41:22.138Z,65.69
2022-09-14T22:43:48.886Z,65.92
2022-09-14T22:46:17.464Z,66.59
2022-09-14T22:48:46.283Z,67.12
2022-09-14T22:51:16.374Z,66.48
2022-09-14T22:53:43.673Z,66.11
2022-09-14T22:56:15.774Z,66.24
2022-09-14T22:58:43.004Z,65.95
2022-09-14T23:01:16.563Z,66.33
2022-09-14T23:03:43.748Z,66.15
2022-09-14T23:06:10.992Z,65.55
2022-09-14T23:08:37.858Z,65.95
2022-09-14T23:11:10.835Z,65.83
2022-09-14T23:13:39.608Z,64.79
2022-09-14T23:16:14.895Z,64.94
2022-09-14T23:18:42.938Z,65.05
2022-09-14T23:21:10.951Z,64.46
2022-09-14T23:23:38.209Z,64.71
2022-09-14T23:26:08.458Z,64.77
2022-09-14T23:28:35.765Z,64.48
2022-09-14T23:31:02.805Z,64.53
2022-09-14T23:33:30.898Z,64.59
2022-09-14T23:35:57.449Z,63.97
2022-09-14T23:38:24.847Z,64.35
2022-09-14T23:40:52.056Z,64.40
2022-09-14T23:43:19.477Z,65.02
2022-09-14T23:45:47.324Z,64.98
2022-09-14T23:48:14.667Z,65.05
2022-09-14T23:50:41.260Z,65.58
2022-09-14T23:53:08.134Z,65.53
2022-09-14T23:55:34.675Z,66.66
2022-09-14T23:58:01.225Z,65.92
